createdAt,value
2023-02-11T00:00:16.326Z,32.25
2023-02-11T00:02:46.084Z,33.60
2023-02-11T00:05:14.152Z,32.33
2023-02-11T00:07:40.783Z,31.08
2023-02-11T00:10:08.171Z,32.33
2023-02-11T00:12:36.214Z,32.40
2023-02-11T00:15:03.364Z,32.30
2023-02-11T00:17:30.608Z,31.48
2023-02-11T00:19:57.194Z,33.38
2023-02-11T00:22:24.109Z,31.23
2023-02-11T00:24:50.977Z,31.35
2023-02-11T00:27:17.579Z,30.98
2023-02-11T00:29:44.858Z,33.38
2023-02-11T00:32:11.574Z,33.25
2023-02-11T00:34:38.318Z,33.25
2023-02-11T00:37:05.745Z,32.10
2023-02-11T00:39:33.557Z,34.00
2023-02-11T00:42:00.877Z,32.63
2023-02-11T00:44:27.500Z,33.05
2023-02-11T00:46:54.099Z,32.67
2023-02-11T00:49:20.822Z,31.48
2023-02-11T00:51:48.507Z,30.80
2023-02-11T00:54:15.228Z,31.92
2023-02-11T00:56:41.849Z,30.80
2023-02-11T00:59:09.139Z,31.65
2023-02-11T01:01:35.977Z,31.08
2023-02-11T01:04:02.758Z,31.63
2023-02-11T01:06:29.668Z,31.05
2023-02-11T01:08:56.291Z,30.38
2023-02-11T01:11:23.012Z,31.15
2023-02-11T01:13:50.442Z,31.05
2023-02-11T01:16:17.765Z,32.15
2023-02-11T01:18:45.938Z,30.98
2023-02-11T01:21:12.576Z,32.10
2023-02-11T01:23:39.166Z,31.52
2023-02-11T01:26:05.917Z,30.92
2023-02-11T01:28:32.614Z,31.33
2023-02-11T01:31:01.673Z,30.52
2023-02-11T01:33:28.409Z,31.77
2023-02-11T01:35:55.181Z,30.27
2023-02-11T01:38:24.653Z,30.70
2023-02-11T01:41:05.237Z,30.85
2023-02-11T01:43:35.614Z,30.42
2023-02-11T01:48:51.314Z,29.23
2023-02-11T01:51:23.830Z,30.27
2023-02-11T01:54:09.631Z,29.30
2023-02-11T01:56:58.569Z,31.30
2023-02-11T01:59:31.201Z,30.40
2023-02-11T02:02:03.548Z,29.75
2023-02-11T02:04:33.570Z,29.13
2023-02-11T02:07:05.146Z,29.73
2023-02-11T02:09:36.904Z,28.80
2023-02-11T02:12:04.156Z,29.92
2023-02-11T02:14:30.836Z,30.02
2023-02-11T02:16:57.439Z,31.60
2023-02-11T02:19:43.296Z,30.63
2023-02-11T02:22:45.360Z,32.53
2023-02-11T02:25:45.971Z,32.45
2023-02-11T02:28:21.312Z,29.70
2023-02-11T02:31:48.452Z,28.83
2023-02-11T02:34:44.762Z,28.17
2023-02-11T02:37:17.645Z,29.30
2023-02-11T02:39:46.077Z,29.92
2023-02-11T02:42:13.292Z,28.58
2023-02-11T02:44:39.968Z,27.67
2023-02-11T02:47:06.650Z,25.80
2023-02-11T02:49:33.271Z,26.38
2023-02-11T02:52:36.964Z,25.27
2023-02-11T02:55:27.229Z,25.17
2023-02-11T02:58:12.559Z,25.67
2023-02-11T03:01:04.844Z,23.73
2023-02-11T03:03:37.769Z,24.75
2023-02-11T03:06:15.532Z,24.02
2023-02-11T03:08:48.628Z,24.85
2023-02-11T03:11:17.583Z,24.13
2023-02-11T03:13:44.703Z,24.63
2023-02-11T03:16:18.179Z,25.45
2023-02-11T03:18:50.297Z,23.85
2023-02-11T03:21:17.698Z,24.23
2023-02-11T03:23:44.242Z,23.83
2023-02-11T03:26:17.148Z,23.05
2023-02-11T03:28:53.135Z,23.17
2023-02-11T03:31:44.448Z,22.98
2023-02-11T03:34:30.121Z,23.25
2023-02-11T03:37:02.516Z,22.67
2023-02-11T03:39:35.333Z,23.40
2023-02-11T03:42:03.037Z,23.33
2023-02-11T03:44:33.392Z,22.85
2023-02-11T03:49:27.706Z,21.88
2023-02-11T03:51:54.846Z,22.25
2023-02-11T03:54:28.076Z,23.27
2023-02-11T03:56:57.635Z,23.23
2023-02-11T03:59:24.338Z,23.23
2023-02-11T04:01:51.403Z,23.00
2023-02-11T04:04:18.259Z,24.13
2023-02-11T04:06:44.905Z,22.73
2023-02-11T04:09:11.683Z,22.33
2023-02-11T04:11:38.254Z,23.13
2023-02-11T04:14:05.169Z,22.88
2023-02-11T04:16:31.867Z,22.52
2023-02-11T04:18:58.679Z,24.20
2023-02-11T04:21:25.338Z,23.73
2023-02-11T04:23:51.925Z,23.23
2023-02-11T04:26:18.586Z,23.33
2023-02-11T04:28:45.160Z,24.45
2023-02-11T04:31:12.711Z,23.33
2023-02-11T04:33:39.305Z,22.13
2023-02-11T04:36:06.233Z,23.58
2023-02-11T04:38:32.780Z,23.40
2023-02-11T04:41:00.471Z,24.08
2023-02-11T04:43:27.109Z,23.35
2023-02-11T04:45:57.141Z,22.73
2023-02-11T04:48:23.847Z,23.00
2023-02-11T04:50:50.442Z,22.10
2023-02-11T04:53:17.288Z,21.83
2023-02-11T04:55:43.906Z,21.85
2023-02-11T04:58:10.589Z,22.58
2023-02-11T05:00:37.154Z,21.63
2023-02-11T05:03:03.908Z,22.08
2023-02-11T05:05:30.451Z,23.42
2023-02-11T05:07:57.406Z,24.38
2023-02-11T05:10:24.093Z,23.58
2023-02-11T05:12:50.753Z,22.98
2023-02-11T05:15:17.366Z,24.38
2023-02-11T05:17:43.952Z,23.58
2023-02-11T05:20:10.818Z,25.83
2023-02-11T05:22:37.510Z,26.05
2023-02-11T05:25:04.341Z,25.77
2023-02-11T05:27:30.954Z,27.25
2023-02-11T05:29:57.615Z,26.05
2023-02-11T05:32:24.267Z,25.48
2023-02-11T05:34:50.905Z,27.20
2023-02-11T05:37:17.646Z,25.13
2023-02-11T05:39:44.333Z,25.85
2023-02-11T05:42:10.953Z,26.15
2023-02-11T05:44:37.805Z,25.73
2023-02-11T05:47:04.502Z,25.98
2023-02-11T05:49:31.108Z,26.33
2023-02-11T05:51:57.687Z,24.92
2023-02-11T05:54:24.352Z,25.00
2023-02-11T05:56:50.915Z,24.90
2023-02-11T05:59:17.639Z,25.75
2023-02-11T06:01:44.582Z,25.45
2023-02-11T06:04:11.275Z,25.90
2023-02-11T06:06:37.877Z,26.08
2023-02-11T06:09:04.624Z,25.92
2023-02-11T06:11:31.296Z,25.48
2023-02-11T06:13:57.844Z,25.20
2023-02-11T06:16:24.577Z,25.88
2023-02-11T06:18:51.263Z,26.10
2023-02-11T06:21:18.046Z,26.20
2023-02-11T06:23:44.641Z,27.13
2023-02-11T06:26:21.092Z,27.35
2023-02-11T06:28:48.078Z,26.30
2023-02-11T06:31:15.468Z,25.98
2023-02-11T06:33:42.402Z,25.92
2023-02-11T06:36:15.019Z,25.95
2023-02-11T06:38:41.753Z,25.15
2023-02-11T06:41:12.031Z,27.33
2023-02-11T06:43:39.462Z,25.13
2023-02-11T06:46:06.690Z,25.75
2023-02-11T06:48:34.214Z,24.48
2023-02-11T06:51:05.074Z,25.17
2023-02-11T06:53:34.738Z,26.00
2023-02-11T06:56:06.623Z,27.73
2023-02-11T06:58:33.725Z,24.65
2023-02-11T07:01:00.386Z,25.33
2023-02-11T07:03:27.039Z,24.05
2023-02-11T07:05:53.715Z,24.00
2023-02-11T07:08:20.285Z,25.73
2023-02-11T07:10:46.976Z,22.48
2023-02-11T07:13:13.620Z,23.52
2023-02-11T07:15:40.259Z,23.50
2023-02-11T07:18:06.858Z,23.17
2023-02-11T07:20:33.440Z,24.45
2023-02-11T07:23:00.113Z,22.27
2023-02-11T07:25:26.732Z,23.42
2023-02-11T07:27:53.662Z,22.38
2023-02-11T07:30:20.316Z,22.50
2023-02-11T07:32:47.079Z,20.55
2023-02-11T07:35:14.715Z,21.00
2023-02-11T07:37:41.656Z,20.88
2023-02-11T07:40:09.065Z,21.75
2023-02-11T07:42:35.874Z,21.35
2023-02-11T07:45:02.470Z,22.25
2023-02-11T07:47:29.060Z,20.98
2023-02-11T07:49:56.738Z,19.33
2023-02-11T07:52:23.581Z,21.17
2023-02-11T07:54:50.182Z,20.58
2023-02-11T07:57:16.767Z,19.80
2023-02-11T07:59:43.328Z,21.05
2023-02-11T08:02:10.317Z,20.85
2023-02-11T08:04:37.045Z,19.95
2023-02-11T08:07:03.696Z,21.50
2023-02-11T08:09:32.221Z,20.65
2023-02-11T08:12:00.993Z,20.25
2023-02-11T08:14:28.491Z,20.48
2023-02-11T08:16:55.234Z,20.05
2023-02-11T08:19:21.899Z,21.00
2023-02-11T08:21:48.534Z,19.83
2023-02-11T08:24:15.351Z,28.50
2023-02-11T08:26:42.304Z,21.83
2023-02-11T08:29:11.870Z,21.20
2023-02-11T08:31:40.758Z,21.80
2023-02-11T08:34:07.836Z,21.05
2023-02-11T08:36:36.637Z,21.13
2023-02-11T08:39:18.655Z,22.27
2023-02-11T08:41:57.034Z,21.88
2023-02-11T08:44:24.057Z,21.98
2023-02-11T08:46:51.234Z,20.92
2023-02-11T08:49:18.012Z,20.58
2023-02-11T08:51:44.925Z,20.50
2023-02-11T08:54:11.858Z,21.67
2023-02-11T08:56:38.830Z,20.88
2023-02-11T08:59:06.296Z,20.40
2023-02-11T09:01:33.368Z,20.30
2023-02-11T09:04:01.014Z,20.63
2023-02-11T09:06:27.942Z,22.13
2023-02-11T09:08:56.397Z,21.25
2023-02-11T09:11:27.721Z,20.45
2023-02-11T09:13:54.722Z,21.30
2023-02-11T09:16:24.420Z,18.85
2023-02-11T09:18:51.176Z,19.70
2023-02-11T09:21:18.856Z,20.23
2023-02-11T09:23:47.637Z,18.67
2023-02-11T09:26:15.529Z,19.65
2023-02-11T09:28:42.182Z,21.65
2023-02-11T09:31:11.058Z,20.33
2023-02-11T09:33:39.503Z,20.00
2023-02-11T09:36:06.844Z,19.77
2023-02-11T09:38:33.557Z,20.88
2023-02-11T09:41:02.617Z,21.52
2023-02-11T09:43:36.428Z,20.02
2023-02-11T09:46:04.299Z,22.30
2023-02-11T09:48:38.536Z,20.67
2023-02-11T09:51:06.327Z,22.00
2023-02-11T09:53:38.351Z,20.25
2023-02-11T09:56:11.544Z,21.25
2023-02-11T09:58:43.165Z,20.98
2023-02-11T10:01:30.966Z,20.15
2023-02-11T10:04:01.223Z,20.67
2023-02-11T10:06:44.639Z,20.15
2023-02-11T10:09:22.593Z,22.27
2023-02-11T10:12:20.354Z,21.23
2023-02-11T10:15:11.568Z,21.48
2023-02-11T10:17:56.664Z,20.92
2023-02-11T10:20:59.522Z,21.50
2023-02-11T10:23:29.805Z,20.30
2023-02-11T10:28:30.197Z,19.23
2023-02-11T10:31:21.074Z,20.52
2023-02-11T10:33:56.846Z,20.63
2023-02-11T10:36:28.366Z,20.77
2023-02-11T10:38:55.011Z,19.45
2023-02-11T10:41:27.928Z,19.23
2023-02-11T10:43:55.117Z,19.67
2023-02-11T10:46:26.626Z,20.60
2023-02-11T10:48:54.072Z,18.70
2023-02-11T10:51:34.218Z,19.35
2023-02-11T10:54:03.842Z,20.23
2023-02-11T10:56:38.172Z,20.08
2023-02-11T10:59:21.663Z,21.52
2023-02-11T11:01:54.002Z,19.20
2023-02-11T11:04:29.831Z,19.58
2023-02-11T11:06:57.171Z,19.80
2023-02-11T11:09:30.916Z,20.15
2023-02-11T11:11:57.510Z,21.17
2023-02-11T11:14:28.798Z,20.17
2023-02-11T11:16:55.730Z,19.25
2023-02-11T11:19:24.434Z,19.13
2023-02-11T11:21:56.378Z,18.02
2023-02-11T11:24:27.940Z,17.98
2023-02-11T11:26:57.411Z,19.13
2023-02-11T11:29:23.939Z,18.08
2023-02-11T11:31:54.649Z,18.23
2023-02-11T11:34:22.695Z,18.77
2023-02-11T11:36:49.848Z,19.48
2023-02-11T11:39:26.802Z,18.90
2023-02-11T11:41:55.810Z,18.08
2023-02-11T11:44:32.333Z,16.75
2023-02-11T11:47:11.044Z,18.27
2023-02-11T11:49:45.567Z,18.33
2023-02-11T11:52:49.023Z,19.02
2023-02-11T11:55:21.888Z,18.85
2023-02-11T11:57:50.460Z,18.50
2023-02-11T12:00:20.769Z,18.38
2023-02-11T12:05:42.965Z,17.75
2023-02-11T12:08:18.902Z,19.25
2023-02-11T12:10:58.223Z,18.42
2023-02-11T12:13:28.344Z,20.50
2023-02-11T12:16:17.551Z,22.95
2023-02-11T12:18:56.042Z,23.52
2023-02-11T12:21:26.028Z,23.55
2023-02-11T12:24:30.516Z,21.73
2023-02-11T12:27:05.768Z,20.75
2023-02-11T12:29:37.588Z,19.73
2023-02-11T12:32:13.647Z,20.02
2023-02-11T12:34:50.315Z,21.15
2023-02-11T12:37:25.992Z,18.95
2023-02-11T12:40:14.141Z,15.18
2023-02-11T12:43:15.650Z,20.67
2023-02-11T12:46:20.767Z,21.05
2023-02-11T12:49:11.763Z,21.33
2023-02-11T12:52:01.134Z,21.42
2023-02-11T12:54:35.566Z,20.73
2023-02-11T12:57:18.849Z,22.27
2023-02-11T13:00:05.041Z,20.75
2023-02-11T13:02:43.893Z,21.75
2023-02-11T13:05:27.718Z,21.38
2023-02-11T13:07:59.422Z,20.92
2023-02-11T13:10:37.317Z,18.60
2023-02-11T13:13:16.351Z,19.65
2023-02-11T13:15:46.874Z,19.67
2023-02-11T13:18:27.537Z,20.13
2023-02-11T13:21:09.847Z,18.95
2023-02-11T13:23:57.855Z,19.70
2023-02-11T13:26:45.861Z,18.98
2023-02-11T13:29:21.411Z,19.77
2023-02-11T13:31:55.424Z,19.02
2023-02-11T13:34:28.075Z,18.85
2023-02-11T13:36:56.085Z,20.27
2023-02-11T13:39:23.173Z,20.10
2023-02-11T13:41:52.639Z,20.45
2023-02-11T13:44:22.875Z,20.25
2023-02-11T13:47:03.181Z,20.58
2023-02-11T13:49:31.762Z,20.17
2023-02-11T13:51:59.653Z,19.67
2023-02-11T13:54:30.243Z,19.17
2023-02-11T13:57:21.838Z,19.88
2023-02-11T13:59:57.172Z,19.88
2023-02-11T14:02:48.691Z,20.13
2023-02-11T14:05:33.949Z,19.48
2023-02-11T14:08:28.442Z,19.52
2023-02-11T14:11:23.303Z,20.02
2023-02-11T14:13:52.659Z,20.55
2023-02-11T14:16:37.054Z,20.73
2023-02-11T14:19:05.969Z,20.23
2023-02-11T14:21:35.642Z,20.33
2023-02-11T14:24:02.181Z,19.73
2023-02-11T14:26:50.050Z,22.00
2023-02-11T14:29:46.115Z,21.23
2023-02-11T14:32:24.888Z,18.60
2023-02-11T14:35:03.514Z,20.88
2023-02-11T14:37:58.346Z,21.65
2023-02-11T14:40:31.945Z,19.23
2023-02-11T14:43:05.362Z,18.80
2023-02-11T14:45:35.481Z,18.98
2023-02-11T14:48:08.295Z,19.48
2023-02-11T14:50:40.956Z,19.60
2023-02-11T14:53:08.154Z,19.42
2023-02-11T14:55:39.534Z,19.13
2023-02-11T14:58:19.191Z,22.33
2023-02-11T15:00:48.554Z,20.40
2023-02-11T15:03:38.735Z,19.93
2023-02-11T15:06:12.124Z,20.13
2023-02-11T15:08:44.503Z,19.92
2023-02-11T15:11:14.085Z,19.65
2023-02-11T15:13:47.616Z,20.33
2023-02-11T15:16:18.594Z,20.63
2023-02-11T15:18:51.674Z,22.10
2023-02-11T15:21:30.174Z,19.75
2023-02-11T15:24:19.035Z,19.15
2023-02-11T15:26:45.686Z,20.52
2023-02-11T15:29:16.683Z,20.55
2023-02-11T15:31:43.474Z,20.05
2023-02-11T15:34:11.586Z,19.67
2023-02-11T15:36:38.549Z,19.27
2023-02-11T15:39:35.645Z,19.98
2023-02-11T15:42:52.136Z,20.08
2023-02-11T15:45:20.476Z,18.63
2023-02-11T15:47:49.755Z,19.45
2023-02-11T15:50:24.405Z,20.55
2023-02-11T15:52:51.692Z,19.45
2023-02-11T15:55:18.842Z,19.15
2023-02-11T15:57:56.777Z,19.35
2023-02-11T16:00:25.260Z,19.75
2023-02-11T16:02:52.428Z,18.45
2023-02-11T16:05:31.236Z,19.60
2023-02-11T16:07:58.686Z,19.35
2023-02-11T16:10:33.562Z,19.45
2023-02-11T16:13:02.975Z,19.98
2023-02-11T16:15:48.893Z,21.77
2023-02-11T16:18:39.978Z,22.70
2023-02-11T16:21:16.065Z,21.45
2023-02-11T16:23:43.786Z,22.33
2023-02-11T16:26:21.310Z,22.05
2023-02-11T16:28:48.253Z,21.10
2023-02-11T16:31:15.006Z,23.58
2023-02-11T16:33:41.654Z,22.08
2023-02-11T16:36:17.110Z,22.60
2023-02-11T16:38:43.758Z,22.15
2023-02-11T16:41:14.443Z,22.25
2023-02-11T16:43:41.383Z,22.33
2023-02-11T16:46:09.202Z,22.02
2023-02-11T16:48:35.913Z,20.10
2023-02-11T16:51:03.441Z,22.85
2023-02-11T16:53:30.047Z,24.13
2023-02-11T16:55:56.634Z,20.45
2023-02-11T16:58:23.216Z,21.08
2023-02-11T17:00:50.658Z,21.23
2023-02-11T17:03:22.270Z,20.52
2023-02-11T17:05:55.322Z,20.65
2023-02-11T17:08:23.165Z,21.70
2023-02-11T17:10:50.391Z,20.65
2023-02-11T17:13:17.265Z,20.58
2023-02-11T17:15:44.114Z,21.88
2023-02-11T17:18:14.166Z,20.20
2023-02-11T17:20:41.438Z,21.80
2023-02-11T17:23:08.275Z,22.48
2023-02-11T17:25:37.392Z,22.40
2023-02-11T17:28:08.324Z,21.50
2023-02-11T17:30:34.966Z,22.17
2023-02-11T17:33:01.600Z,21.58
2023-02-11T17:35:28.170Z,21.48
2023-02-11T17:37:54.821Z,21.48
2023-02-11T17:40:21.753Z,20.42
2023-02-11T17:42:48.413Z,22.02
2023-02-11T17:45:15.174Z,25.23
2023-02-11T17:47:41.788Z,23.30
2023-02-11T17:50:09.116Z,22.85
2023-02-11T17:52:36.587Z,22.73
2023-02-11T17:55:03.948Z,22.20
2023-02-11T17:57:31.180Z,22.23
2023-02-11T17:59:57.948Z,23.48
2023-02-11T18:02:24.621Z,22.85
2023-02-11T18:04:52.275Z,24.20
2023-02-11T18:07:19.879Z,23.83
2023-02-11T18:09:46.710Z,23.38
2023-02-11T18:12:13.477Z,22.52
2023-02-11T18:14:40.714Z,23.55
2023-02-11T18:17:07.415Z,23.42
2023-02-11T18:19:36.439Z,22.70
2023-02-11T18:22:04.260Z,22.40
2023-02-11T18:24:31.257Z,22.70
2023-02-11T18:26:57.958Z,22.70
2023-02-11T18:29:24.790Z,24.10
2023-02-11T18:31:54.659Z,23.55
2023-02-11T18:34:21.320Z,22.75
2023-02-11T18:36:48.874Z,27.85
2023-02-11T18:39:16.117Z,27.67
2023-02-11T18:41:43.475Z,27.30
2023-02-11T18:44:14.000Z,23.63
2023-02-11T18:46:41.005Z,22.65
2023-02-11T18:49:07.687Z,21.88
2023-02-11T18:51:34.280Z,23.35
2023-02-11T18:54:01.645Z,22.90
2023-02-11T18:56:28.507Z,22.17
2023-02-11T18:58:56.539Z,23.77
2023-02-11T19:01:26.758Z,23.50
2023-02-11T19:03:54.991Z,23.02
2023-02-11T19:06:27.242Z,22.52
2023-02-11T19:08:57.476Z,23.17
2023-02-11T19:11:45.879Z,23.50
2023-02-11T19:14:13.873Z,24.63
2023-02-11T19:16:42.545Z,22.42
2023-02-11T19:19:09.735Z,24.40
2023-02-11T19:21:36.596Z,25.80
2023-02-11T19:24:07.693Z,24.88
2023-02-11T19:26:35.064Z,22.98
2023-02-11T19:29:01.951Z,21.73
2023-02-11T19:31:32.026Z,20.45
2023-02-11T19:33:59.391Z,20.23
2023-02-11T19:36:25.994Z,22.25
2023-02-11T19:38:52.597Z,20.45
2023-02-11T19:41:22.057Z,21.40
2023-02-11T19:43:52.811Z,21.27
2023-02-11T19:46:23.570Z,19.52
2023-02-11T19:48:50.839Z,19.90
2023-02-11T19:51:17.907Z,19.52
2023-02-11T19:53:45.142Z,19.25
2023-02-11T19:56:12.729Z,18.90
2023-02-11T19:58:40.281Z,21.50
2023-02-11T20:01:12.506Z,21.48
2023-02-11T20:03:42.412Z,20.48
2023-02-11T20:06:13.386Z,23.00
2023-02-11T20:08:40.269Z,21.88
2023-02-11T20:11:12.719Z,22.38
2023-02-11T20:13:39.467Z,21.58
2023-02-11T20:16:12.403Z,21.92
2023-02-11T20:18:40.552Z,20.88
2023-02-11T20:21:12.233Z,19.02
2023-02-11T20:23:40.260Z,19.70
2023-02-11T20:26:11.564Z,20.73
2023-02-11T20:28:38.510Z,20.02
2023-02-11T20:31:06.010Z,20.45
2023-02-11T20:33:34.707Z,20.52
2023-02-11T20:36:07.154Z,19.02
2023-02-11T20:38:34.203Z,20.20
2023-02-11T20:41:13.710Z,19.52
2023-02-11T20:43:41.892Z,20.30
2023-02-11T20:46:08.976Z,20.20
2023-02-11T20:48:35.744Z,20.98
2023-02-11T20:51:08.077Z,20.80
2023-02-11T20:53:36.070Z,19.42
2023-02-11T20:56:06.962Z,20.23
2023-02-11T20:58:34.413Z,19.30
2023-02-11T21:01:18.540Z,19.65
2023-02-11T21:04:02.793Z,19.35
2023-02-11T21:06:40.450Z,19.95
2023-02-11T21:09:08.490Z,20.88
2023-02-11T21:11:35.307Z,21.48
2023-02-11T21:14:02.313Z,21.00
2023-02-11T21:16:29.118Z,20.73
2023-02-11T21:18:55.990Z,20.63
2023-02-11T21:21:23.780Z,20.73
2023-02-11T21:23:50.400Z,20.50
2023-02-11T21:26:17.189Z,21.10
2023-02-11T21:28:44.396Z,19.65
2023-02-11T21:31:18.512Z,21.02
2023-02-11T21:33:45.499Z,20.40
2023-02-11T21:36:12.217Z,19.67
2023-02-11T21:38:38.839Z,20.98
2023-02-11T21:41:06.058Z,20.38
2023-02-11T21:43:33.406Z,18.55
2023-02-11T21:46:00.174Z,18.83
2023-02-11T21:48:26.857Z,18.88
2023-02-11T21:50:53.681Z,18.85
2023-02-11T21:53:20.312Z,19.25
2023-02-11T21:55:47.006Z,19.27
2023-02-11T21:58:14.195Z,19.92
2023-02-11T22:00:41.006Z,19.83
2023-02-11T22:03:07.750Z,19.38
2023-02-11T22:05:34.405Z,18.80
2023-02-11T22:08:00.991Z,19.17
2023-02-11T22:10:27.594Z,19.88
2023-02-11T22:12:54.240Z,20.20
2023-02-11T22:15:20.978Z,20.63
2023-02-11T22:17:47.537Z,20.55
2023-02-11T22:20:14.252Z,20.35
2023-02-11T22:22:40.864Z,19.48
2023-02-11T22:25:07.745Z,18.67
2023-02-11T22:27:34.365Z,20.40
2023-02-11T22:30:01.006Z,19.13
2023-02-11T22:32:27.597Z,20.85
2023-02-11T22:34:54.216Z,20.23
2023-02-11T22:37:20.927Z,21.45
2023-02-11T22:39:47.653Z,19.70
2023-02-11T22:42:14.252Z,21.35
2023-02-11T22:44:41.020Z,21.20
2023-02-11T22:47:08.278Z,21.27
2023-02-11T22:49:35.572Z,20.88
2023-02-11T22:52:02.153Z,19.25
2023-02-11T22:54:28.784Z,19.17
2023-02-11T22:56:55.431Z,19.90
2023-02-11T22:59:22.017Z,21.42
2023-02-11T23:01:49.141Z,21.52
2023-02-11T23:04:16.979Z,21.08
2023-02-11T23:06:43.727Z,22.58
2023-02-11T23:09:12.628Z,23.83
2023-02-11T23:11:40.378Z,23.27
2023-02-11T23:14:08.623Z,22.75
2023-02-11T23:16:35.356Z,30.13
2023-02-11T23:19:05.991Z,27.77
2023-02-11T23:21:34.448Z,25.77
2023-02-11T23:24:03.912Z,25.65
2023-02-11T23:26:31.619Z,24.70
2023-02-11T23:28:58.973Z,29.45
2023-02-11T23:31:33.877Z,23.50
2023-02-11T23:34:01.182Z,23.98
2023-02-11T23:36:28.132Z,22.08
2023-02-11T23:38:54.828Z,24.23
2023-02-11T23:41:21.557Z,23.85
2023-02-11T23:43:53.618Z,23.25
2023-02-11T23:46:21.985Z,24.73
2023-02-11T23:48:49.424Z,23.23
2023-02-11T23:51:16.103Z,24.75
2023-02-11T23:53:42.834Z,24.73
2023-02-11T23:56:11.056Z,21.55
2023-02-11T23:58:37.643Z,22.25
